Drake, Kentucky
Current Conditions -  °F | °C
As of 9:53 PM on Saturday 24 Jan 2015 (Local Time) from KBWG Reporting Station
Clear Clear  
Wind Chill: 33°   Ceiling: Unl
Heat Index: 33°   Visibility: 9mi
Dew Point: 27°   Wind: 0mph
Humidity: 78%   Direction: NA
Pressure: 29.87"   Gusts: NA
Location:  36.84°N, 86.41°W
Report Text: KBWG 250353Z AUTO 00000KT 9SM CLR 01/M03 A2987 RMK AO2 SLP118 T00061028
Loading
Personal Weather Stations






























Interactive Weather Map New forecast layout! Learn more

10-Day Weather Forecast

Advertisements
Track Severe Weather on mobile